Time;durP1;ratioP1;P1;durP2;ratioP2;P2;SDS_P1;SDS_P2;PMS_P1;PMS_P2;Temp;Humidity;BMP_temperature;BMP_pressure;BME280_temperature;BME280_humidity;BME280_pressure;Samples;Min_cycle;Max_cycle;Signal;HPM_P1;HPM_P2
2024/01/12 00:01:14;;;;;;;15.00;4.82;;;;;;;-0.38;100.00;103316.00;4953954;29;20484;-80
2024/01/12 00:03:39;;;;;;;13.52;4.47;;;;;;;-0.39;100.00;103311.69;4954234;29;20066;-81
2024/01/12 00:06:05;;;;;;;12.77;4.50;;;;;;;-0.38;100.00;103318.56;4953518;29;20485;-80
2024/01/12 00:08:32;;;;;;;14.23;5.00;;;;;;;-0.40;100.00;103318.47;4954677;29;20115;-80
2024/01/12 00:10:57;;;;;;;;;;;;;;;-0.39;100.00;103309.13;4954780;29;20035;-80
2024/01/12 00:13:23;;;;;;;13.97;4.77;;;;;;;-0.38;100.00;103319.44;4953667;29;19925;-80
2024/01/12 00:15:48;;;;;;;11.50;4.63;;;;;;;-0.39;100.00;103314.25;4954303;29;20019;-80
2024/01/12 00:18:19;;;;;;;13.38;5.07;;;;;;;-0.40;100.00;103318.47;4954532;29;20158;-80
2024/01/12 00:20:44;;;;;;;13.63;4.80;;;;;;;-0.37;100.00;103322.88;4953259;29;20059;-80
2024/01/12 00:23:10;;;;;;;13.25;4.68;;;;;;;-0.35;100.00;103326.44;4954718;29;20062;-80
2024/01/12 00:25:35;;;;;;;14.40;5.25;;;;;;;-0.38;100.00;103309.22;4953562;29;20419;-80
2024/01/12 00:28:00;;;;;;;12.00;4.90;;;;;;;-0.42;100.00;103308.91;4954461;29;20039;-80
2024/01/12 00:30:26;;;;;;;13.80;4.65;;;;;;;-0.38;100.00;103323.66;4954395;29;20523;-80
2024/01/12 00:32:51;;;;;;;15.30;5.00;;;;;;;-0.37;100.00;103325.44;4953626;29;20049;-80
2024/01/12 00:35:19;;;;;;;15.45;5.40;;;;;;;-0.37;100.00;103315.25;4954298;29;20027;-81
2024/01/12 00:37:45;;;;;;;14.80;5.00;;;;;;;-0.36;100.00;103325.53;4953881;29;20476;-80
2024/01/12 00:40:13;;;;;;;15.32;5.05;;;;;;;-0.36;100.00;103320.44;4953088;28;20125;-80
2024/01/12 00:42:38;;;;;;;12.02;4.30;;;;;;;-0.39;100.00;103315.09;4957108;29;20603;-80
2024/01/12 00:45:04;;;;;;;14.43;4.90;;;;;;;-0.37;100.00;103320.34;4957577;29;20110;-80
2024/01/12 00:47:52;;;;;;;13.43;4.63;;;;;;;-0.36;100.00;103329.78;5008282;23;20054;-80
2024/01/12 00:51:17;;;;;;;13.50;4.82;;;;;;;-0.39;100.00;103322.75;4937660;29;20106;-80
2024/01/12 00:53:42;;;;;;;13.80;5.20;;;;;;;-0.46;100.00;103312.91;4980483;23;20440;-80
2024/01/12 00:56:19;;;;;;;15.50;5.40;;;;;;;-0.38;100.00;103321.13;4983355;23;20073;-80
2024/01/12 00:58:44;;;;;;;15.27;5.00;;;;;;;-0.38;100.00;103316.00;5118633;23;20043;-80
2024/01/12 01:01:10;;;;;;;14.48;5.35;;;;;;;-0.35;100.00;103326.44;4975949;28;20039;-80
2024/01/12 01:03:38;;;;;;;13.27;4.78;;;;;;;-0.36;100.00;103322.13;4976530;28;20073;-80
2024/01/12 01:06:04;;;;;;;13.90;5.15;;;;;;;-0.34;100.00;103323.13;4976700;28;20070;-80
2024/01/12 01:08:32;;;;;;;15.27;5.10;;;;;;;-0.33;100.00;103324.84;4975587;28;20062;-80
2024/01/12 01:13:41;;;;;;;12.63;4.80;;;;;;;-0.41;100.00;103305.59;4982420;23;20133;-80
2024/01/12 01:19:41;;;;;;;13.98;5.03;;;;;;;-0.36;100.00;103332.31;4937962;29;20495;-80
2024/01/12 01:22:13;;;;;;;17.55;6.55;;;;;;;-0.52;100.00;103315.06;4937382;29;20034;-80
2024/01/12 01:24:57;;;;;;;17.65;6.20;;;;;;;-0.57;100.00;103306.19;4937731;29;20024;-80
2024/01/12 01:27:36;;;;;;;17.48;5.82;;;;;;;-0.55;100.00;103317.38;4937384;29;20036;-80
2024/01/12 01:30:16;;;;;;;16.38;5.75;;;;;;;-0.55;100.00;103323.34;4936667;29;20043;-80
2024/01/12 01:32:54;;;;;;;16.88;5.97;;;;;;;-0.42;100.00;103344.63;4937347;29;20031;-80
2024/01/12 01:35:32;;;;;;;15.27;5.40;;;;;;;-0.52;100.00;103328.69;4937468;29;20038;-80
2024/01/12 01:38:21;;;;;;;15.10;5.40;;;;;;;-0.36;100.00;103363.81;4936598;29;20047;-81
2024/01/12 01:40:46;;;;;;;15.05;5.43;;;;;;;-0.47;100.00;103352.88;4937158;29;20043;-80
2024/01/12 01:43:23;;;;;;;17.35;6.18;;;;;;;-0.45;100.00;103354.66;4949778;29;20804;-80
2024/01/12 01:49:20;;;;;;;17.08;5.78;;;;;;;-0.37;100.00;103373.94;4915835;29;20532;-80
2024/01/12 01:51:54;;;;;;;15.88;5.78;;;;;;;-0.36;100.00;103370.59;4915007;29;20036;-80
2024/01/12 01:54:23;;;;;;;15.85;5.65;;;;;;;-0.45;100.00;103350.41;4916244;29;20395;-80
2024/01/12 01:56:52;;;;;;;16.15;5.47;;;;;;;-0.42;100.00;103347.19;4915072;29;20032;-80
2024/01/12 01:59:23;;;;;;;15.63;5.32;;;;;;;-0.42;100.00;103339.53;4914880;29;20131;-80
2024/01/12 02:02:26;;;;;;;15.88;5.53;;;;;;;-0.28;100.00;103359.25;4915387;29;20166;-80
2024/01/12 02:05:00;;;;;;;14.70;5.45;;;;;;;-0.33;100.00;103347.81;4915169;29;20036;-80
2024/01/12 02:07:38;;;;;;;14.68;5.10;;;;;;;-0.38;100.00;103328.78;4915737;29;20119;-80
2024/01/12 02:10:04;;;;;;;14.10;5.10;;;;;;;-0.35;100.00;103336.66;4915951;29;20028;-80
2024/01/12 02:13:01;;;;;;;;;;;;;;;;;;;;;
2024/01/12 02:15:39;;;;;;;13.45;5.03;;;;;;;-0.39;100.00;103320.22;4878084;29;20048;-80
2024/01/12 02:18:11;;;;;;;15.02;5.45;;;;;;;-0.43;100.00;103312.25;4895851;29;20045;-80
2024/01/12 02:20:36;;;;;;;15.23;5.68;;;;;;;-0.42;100.00;103307.25;4896332;29;20127;-80
2024/01/12 02:23:17;;;;;;;15.27;5.50;;;;;;;-0.26;100.00;103337.28;4896512;29;20553;-80
2024/01/12 02:25:45;;;;;;;15.55;5.35;;;;;;;-0.38;100.00;103316.00;4903560;29;20135;-80
2024/01/12 02:28:30;;;;;;;14.00;5.15;;;;;;;-0.36;100.00;103317.00;4917814;29;20028;-80
2024/01/12 02:31:10;;;;;;;14.98;5.03;;;;;;;-0.29;100.00;103337.06;4935423;29;20028;-80
2024/01/12 02:33:43;;;;;;;14.30;5.15;;;;;;;-0.43;100.00;103304.59;4935468;29;20036;-80
2024/01/12 02:36:20;;;;;;;15.07;5.63;;;;;;;-0.41;100.00;103319.25;4954810;29;20053;-80
2024/01/12 02:39:11;;;;;;;15.10;5.22;;;;;;;-0.25;100.00;103344.16;4955220;29;20038;-80
2024/01/12 02:41:48;;;;;;;15.30;5.70;;;;;;;-0.28;100.00;103340.53;4954362;29;20027;-80
2024/01/12 02:44:16;;;;;;;14.80;5.35;;;;;;;-0.25;100.00;103345.81;4955129;29;20028;-80
2024/01/12 02:46:48;;;;;;;15.63;5.47;;;;;;;-0.40;100.00;103317.56;4954447;29;20066;-80
2024/01/12 02:49:16;;;;;;;16.13;5.50;;;;;;;-0.42;100.00;103308.91;4955167;29;20037;-80
2024/01/12 02:51:42;;;;;;;14.93;5.40;;;;;;;-0.34;100.00;103318.00;4954933;29;20038;-80
2024/01/12 02:54:23;;;;;;;15.38;5.60;;;;;;;-0.39;100.00;103316.78;4954488;28;20031;-80
2024/01/12 02:56:57;;;;;;;15.55;5.72;;;;;;;-0.42;100.00;103296.16;4954764;29;20391;-80
2024/01/12 02:59:22;;;;;;;14.65;5.32;;;;;;;-0.26;100.00;103326.16;4946283;23;20114;-80
2024/01/12 03:01:48;;;;;;;17.13;5.57;;;;;;;-0.26;100.00;103323.63;4935169;29;20047;-80
2024/01/12 03:04:19;;;;;;;15.13;5.47;;;;;;;-0.28;100.00;103313.31;4935596;29;20027;-81
2024/01/12 03:06:44;;;;;;;15.25;5.38;;;;;;;-0.28;100.00;103317.56;4935430;29;20035;-80
2024/01/12 03:09:10;;;;;;;15.10;5.32;;;;;;;-0.28;100.00;103322.66;4935382;29;20087;-81
2024/01/12 03:11:44;;;;;;;14.98;5.10;;;;;;;-0.25;100.00;103320.28;4935707;29;20078;-80
2024/01/12 03:14:09;;;;;;;14.10;5.30;;;;;;;-0.25;100.00;103326.31;4954969;29;20499;-81
2024/01/12 03:16:35;;;;;;;15.63;5.40;;;;;;;-0.25;100.00;103317.75;4954339;29;20098;-80
2024/01/12 03:19:00;;;;;;;12.35;4.78;;;;;;;-0.26;100.00;103318.50;4955024;29;20031;-80
2024/01/12 03:21:28;;;;;;;14.95;5.25;;;;;;;-0.31;100.00;103313.09;4953945;29;20119;-80
2024/01/12 03:23:53;;;;;;;15.80;5.28;;;;;;;-0.28;100.00;103309.91;4954091;29;20057;-80
2024/01/12 03:28:56;;;;;;;15.90;5.72;;;;;;;-0.37;100.00;103294.81;4932988;29;20047;-80
2024/01/12 03:31:33;;;;;;;14.85;5.30;;;;;;;-0.40;100.00;103287.84;4932881;29;20432;-81
2024/01/12 03:34:02;;;;;;;14.80;5.38;;;;;;;-0.35;100.00;103296.69;5180716;23;20426;-80
2024/01/12 03:37:01;;;;;;;15.82;5.57;;;;;;;-0.22;100.00;103315.41;4973202;28;20042;-80
2024/01/12 03:39:27;;;;;;;16.27;5.55;;;;;;;-0.41;100.00;103287.72;4974102;28;20022;-81
2024/01/12 03:42:11;;;;;;;15.57;5.80;;;;;;;-0.28;100.00;103308.22;4973471;28;20097;-81
2024/01/12 03:44:42;;;;;;;16.58;6.20;;;;;;;-0.27;100.00;103310.00;4973036;28;20030;-80
2024/01/12 03:47:08;;;;;;;16.45;5.85;;;;;;;-0.32;100.00;103296.91;4973890;28;20563;-80
2024/01/12 03:49:45;;;;;;;15.93;5.97;;;;;;;-0.20;100.00;103313.84;4972802;28;20054;-80
2024/01/12 03:52:22;;;;;;;14.80;5.45;;;;;;;-0.29;100.00;103298.78;4973779;28;20086;-81
2024/01/12 03:54:48;;;;;;;15.52;5.55;;;;;;;-0.20;100.00;103309.63;4973939;28;20035;-81
2024/01/12 03:57:13;;;;;;;14.35;5.57;;;;;;;-0.19;100.00;103310.53;4962700;28;20444;-81
2024/01/12 03:59:54;;;;;;;16.02;5.63;;;;;;;-0.30;100.00;103286.81;4953963;29;20027;-80
2024/01/12 04:02:28;;;;;;;16.40;5.82;;;;;;;-0.35;100.00;103271.19;4954768;29;20094;-81
2024/01/12 04:04:54;;;;;;;16.50;5.63;;;;;;;-0.32;100.00;103280.69;4953751;29;20545;-81
2024/01/12 04:07:28;;;;;;;16.35;5.80;;;;;;;-0.21;100.00;103295.09;4954744;29;20106;-81
2024/01/12 04:09:54;;;;;;;15.50;5.60;;;;;;;-0.33;100.00;103276.38;4954556;29;20031;-81
2024/01/12 04:12:19;;;;;;;17.23;5.80;;;;;;;-0.36;100.00;103263.44;4959935;28;20379;-81
2024/01/12 04:14:45;;;;;;;17.33;6.20;;;;;;;-0.25;100.00;103285.47;4973604;28;20472;-81
2024/01/12 04:17:11;;;;;;;14.73;5.60;;;;;;;-0.36;100.00;103274.50;4977051;28;20038;-81
2024/01/12 04:19:48;;;;;;;14.15;5.25;;;;;;;-0.33;100.00;103274.72;4976508;28;20038;-80
2024/01/12 04:22:31;;;;;;;16.00;5.45;;;;;;;-0.24;100.00;103286.34;4976964;28;20034;-81
2024/01/12 04:24:57;;;;;;;13.60;5.07;;;;;;;-0.24;100.00;103291.44;4964385;23;20052;-80
2024/01/12 04:27:25;;;;;;;15.27;5.25;;;;;;;-0.22;100.00;103302.66;4938878;29;20476;-81
2024/01/12 04:29:50;;;;;;;13.85;4.97;;;;;;;-0.23;100.00;103295.75;4938845;29;20016;-81
2024/01/12 04:32:18;;;;;;;14.10;5.20;;;;;;;-0.26;100.00;103301.56;4938262;29;20027;-81
2024/01/12 04:34:43;;;;;;;13.55;4.80;;;;;;;-0.23;100.00;103311.09;4938625;29;20016;-81
2024/01/12 04:37:14;;;;;;;13.40;4.60;;;;;;;-0.24;100.00;103315.31;4938778;29;20075;-81
2024/01/12 04:39:41;;;;;;;14.63;5.22;;;;;;;-0.23;100.00;103308.53;4938279;29;20024;-81
2024/01/12 04:42:06;;;;;;;14.85;5.55;;;;;;;-0.22;100.00;103310.31;4942585;29;20391;-80
2024/01/12 04:44:34;;;;;;;13.13;5.00;;;;;;;-0.24;100.00;103305.09;4957961;29;20037;-81
2024/01/12 04:46:59;;;;;;;15.00;5.60;;;;;;;-0.24;100.00;103309.31;4957266;29;20023;-81
2024/01/12 04:49:25;;;;;;;15.80;5.38;;;;;;;-0.26;100.00;103311.75;4957720;29;20465;-81
2024/01/12 04:51:50;;;;;;;17.25;6.05;;;;;;;-0.31;100.00;103305.44;4957518;29;20054;-81
2024/01/12 04:54:16;;;;;;;17.17;6.13;;;;;;;-0.27;100.00;103310.00;4957190;29;20099;-81
2024/01/12 04:56:41;;;;;;;16.33;5.70;;;;;;;-0.27;100.00;103303.97;4957343;29;20027;-81
2024/01/12 04:59:22;;;;;;;16.38;5.90;;;;;;;-0.31;100.00;103292.69;4963088;23;20035;-80
2024/01/12 05:02:05;;;;;;;15.32;5.43;;;;;;;-0.37;100.00;103284.63;4937260;29;20058;-81
2024/01/12 05:05:07;;;;;;;16.67;6.13;;;;;;;-0.35;100.00;103283.06;4938088;29;20023;-81
2024/01/12 05:07:41;;;;;;;14.35;5.00;;;;;;;-0.29;100.00;103293.69;4937430;29;20027;-81
2024/01/12 05:10:07;;;;;;;13.63;4.78;;;;;;;-0.39;100.00;103271.72;4937988;29;20118;-81
2024/01/12 05:12:34;;;;;;;15.85;5.50;;;;;;;-0.27;100.00;103281.91;4969469;23;20170;-81
2024/01/12 05:15:00;;;;;;;15.20;5.38;;;;;;;-0.20;100.00;103288.31;4975295;28;20026;-81
2024/01/12 05:17:25;;;;;;;15.63;5.30;;;;;;;-0.24;100.00;103268.47;4976483;28;20154;-81
2024/01/12 05:19:53;;;;;;;14.30;5.05;;;;;;;-0.21;100.00;103279.78;4976061;28;20031;-81
2024/01/12 05:22:19;;;;;;;11.75;4.53;;;;;;;-0.24;100.00;103281.22;4975509;28;20050;-81
2024/01/12 05:24:47;;;;;;;13.40;4.78;;;;;;;-0.22;100.00;103290.75;4976042;28;20027;-81
2024/01/12 05:27:12;;;;;;;11.75;5.00;;;;;;;-0.21;100.00;103286.56;4976033;28;20029;-81
2024/01/12 05:29:38;;;;;;;13.10;4.93;;;;;;;-0.21;100.00;103273.78;4975359;28;20027;-81
2024/01/12 05:32:03;;;;;;;13.00;4.78;;;;;;;-0.21;100.00;103279.78;4976078;28;20030;-81
2024/01/12 05:34:28;;;;;;;14.02;5.05;;;;;;;-0.16;100.00;103280.09;4976453;28;20054;-81
2024/01/12 05:37:12;;;;;;;14.65;5.05;;;;;;;-0.30;100.00;103258.72;4951229;23;20056;-81
2024/01/12 05:39:53;;;;;;;12.65;4.75;;;;;;;-0.19;100.00;103264.56;4937240;29;20039;-81
2024/01/12 05:42:21;;;;;;;15.10;5.22;;;;;;;-0.23;100.00;103265.13;4942198;29;20031;-81
2024/01/12 05:44:50;;;;;;;13.98;5.13;;;;;;;-0.25;100.00;103269.25;4956620;29;20031;-81
2024/01/12 05:47:26;;;;;;;12.82;4.60;;;;;;;-0.27;100.00;103276.81;4956675;29;20031;-81
2024/01/12 05:50:10;;;;;;;14.00;5.03;;;;;;;-0.16;100.00;103301.41;4955591;29;20034;-80
2024/01/12 05:52:50;;;;;;;13.50;4.72;;;;;;;-0.30;100.00;103270.63;4956443;28;20023;-81
2024/01/12 05:55:16;;;;;;;14.85;4.70;;;;;;;-0.26;100.00;103278.59;4956690;29;20023;-80
2024/01/12 05:57:54;;;;;;;13.48;4.80;;;;;;;-0.26;100.00;103278.59;4955335;29;20023;-80
2024/01/12 06:00:19;;;;;;;14.00;5.00;;;;;;;-0.29;100.00;103280.91;4955653;29;20031;-81
2024/01/12 06:02:47;;;;;;;14.73;5.45;;;;;;;-0.27;100.00;103287.03;4956263;29;20087;-81
2024/01/12 06:06:01;;;;;;;11.30;4.18;;;;;;;-0.33;100.00;103274.72;4955339;29;20024;-81
2024/01/12 06:08:26;;;;;;;13.95;4.90;;;;;;;-0.33;100.00;103278.94;4896765;29;20176;-81
2024/01/12 06:11:00;;;;;;;13.23;4.55;;;;;;;-0.30;100.00;103279.16;4896094;29;20455;-81
2024/01/12 06:13:41;;;;;;;13.13;4.82;;;;;;;-0.18;100.00;103290.19;4882890;29;20045;-81
2024/01/12 06:16:12;;;;;;;14.20;4.88;;;;;;;-0.28;100.00;103272.47;4878370;29;20075;-81
2024/01/12 06:18:37;;;;;;;12.88;4.68;;;;;;;-0.16;100.00;103290.28;4877353;29;20078;-81
2024/01/12 06:21:14;;;;;;;13.93;4.85;;;;;;;-0.21;100.00;103286.56;4878227;29;20497;-81
2024/01/12 06:23:49;;;;;;;13.10;4.78;;;;;;;-0.13;100.00;103298.16;4878007;29;20474;-80
2024/01/12 06:26:14;;;;;;;12.35;4.70;;;;;;;-0.13;100.00;103294.75;4920355;29;20059;-81
2024/01/12 06:28:40;;;;;;;12.82;4.55;;;;;;;-0.13;100.00;103293.06;4936389;29;20436;-80
2024/01/12 06:31:08;;;;;;;12.43;4.80;;;;;;;-0.05;100.00;103306.34;4936528;29;20023;-80
2024/01/12 06:33:45;;;;;;;11.15;4.40;;;;;;;-0.25;100.00;103282.91;4935876;29;20084;-80
2024/01/12 06:36:19;;;;;;;12.38;4.82;;;;;;;-0.05;100.00;103324.22;4935651;29;20097;-81
2024/01/12 06:38:44;;;;;;;13.10;4.50;;;;;;;-0.07;100.00;103308.81;4932818;29;20449;-80
2024/01/12 06:41:09;;;;;;;12.20;4.20;;;;;;;-0.06;100.00;103319.91;4936293;29;20024;-80
2024/01/12 06:43:34;;;;;;;10.60;4.28;;;;;;;-0.03;100.00;103321.00;4935004;29;20027;-80
2024/01/12 06:46:00;;;;;;;13.13;4.60;;;;;;;-0.03;100.00;103326.09;4942648;23;20102;-81
2024/01/12 06:48:31;;;;;;;11.90;4.65;;;;;;;-0.03;100.00;103318.44;4935959;29;20548;-81
2024/01/12 06:50:57;;;;;;;10.00;3.75;;;;;;;-0.04;100.00;103310.69;4936076;29;20485;-80
2024/01/12 06:53:22;;;;;;;12.43;4.30;;;;;;;-0.04;100.00;103308.13;4935673;29;20178;-81
2024/01/12 06:55:47;;;;;;;9.70;4.00;;;;;;;0.02;100.00;103328.09;4935903;29;20115;-81
2024/01/12 06:58:13;;;;;;;9.98;4.15;;;;;;;0.02;100.00;103325.53;4936880;29;20111;-80
2024/01/12 07:00:38;;;;;;;10.93;4.05;;;;;;;0.02;100.00;103322.97;4954281;29;20131;-80
2024/01/12 07:03:04;;;;;;;9.73;3.95;;;;;;;0.03;100.00;103324.75;4955236;29;20034;-81
2024/01/12 07:05:31;;;;;;;8.30;3.72;;;;;;;0.01;100.00;103319.53;4954885;29;20097;-81
2024/01/12 07:07:57;;;;;;;9.18;3.90;;;;;;;0.02;100.00;103318.75;4954498;29;20030;-81
2024/01/12 07:10:22;;;;;;;12.38;4.28;;;;;;;0.01;100.00;103313.53;4953825;29;20039;-81
2024/01/12 07:12:51;;;;;;;10.55;4.22;;;;;;;0.05;100.00;103316.41;4945836;29;20370;-81
2024/01/12 07:15:17;;;;;;;10.18;4.05;;;;;;;0.07;100.00;103319.97;4935234;29;20074;-80
2024/01/12 07:17:43;;;;;;;11.98;4.22;;;;;;;0.07;100.00;103312.31;4939511;29;20051;-80
2024/01/12 07:20:10;;;;;;;9.75;3.92;;;;;;;0.08;100.00;103300.41;4936142;29;20023;-80
2024/01/12 07:22:35;;;;;;;8.35;3.80;;;;;;;0.06;100.00;103302.88;4935064;29;20059;-81
2024/01/12 07:25:01;;;;;;;12.07;4.13;;;;;;;0.05;100.00;103295.97;4935780;29;20445;-81
2024/01/12 07:27:26;;;;;;;11.80;4.57;;;;;;;0.02;100.00;103294.91;4935813;29;20110;-79
2024/01/12 07:29:51;;;;;;;14.30;5.30;;;;;;;0.06;100.00;103299.41;4934774;29;20106;-80
2024/01/12 07:32:17;;;;;;;13.30;4.60;;;;;;;0.02;100.00;103288.09;4935804;29;20027;-80
2024/01/12 07:34:42;;;;;;;12.07;4.50;;;;;;;0.07;100.00;103301.19;4934881;29;20035;-81
2024/01/12 07:37:07;;;;;;;12.38;4.63;;;;;;;0.01;100.00;103288.00;4935927;29;20066;-81
2024/01/12 07:39:33;;;;;;;10.80;4.03;;;;;;;0.06;100.00;103300.31;5111834;23;20039;-80
2024/01/12 07:41:58;;;;;;;9.55;4.03;;;;;;;0.09;100.00;103300.53;4954226;29;20051;-80
2024/01/12 07:44:26;;;;;;;11.82;4.47;;;;;;;0.09;100.00;103297.97;4954585;29;20396;-80
2024/01/12 07:46:51;;;;;;;9.35;3.80;;;;;;;0.12;100.00;103310.06;4961351;28;20110;-81
2024/01/12 07:49:19;;;;;;;9.98;4.10;;;;;;;0.11;100.00;103304.03;4973809;28;20443;-80
2024/01/12 07:51:45;;;;;;;9.10;3.72;;;;;;;0.11;100.00;103314.25;4974260;28;20034;-80
2024/01/12 07:54:13;;;;;;;6.60;3.33;;;;;;;0.10;100.00;103297.19;4963278;28;20032;-80
2024/01/12 07:56:48;;;;;;;9.10;3.60;;;;;;;0.13;100.00;103296.50;4957461;29;20023;-80
2024/01/12 07:59:28;;;;;;;7.72;3.67;;;;;;;0.16;100.00;103291.63;4961745;28;20031;-80
2024/01/12 08:02:04;;;;;;;9.93;3.80;;;;;;;0.11;100.00;103282.75;4941933;28;20091;-79
2024/01/12 08:04:51;;;;;;;10.38;4.15;;;;;;;0.18;100.00;103295.13;4968523;28;20062;-81
2024/01/12 08:07:47;;;;;;;9.50;3.92;;;;;;;0.21;100.00;103302.13;4977640;28;20097;-81
2024/01/12 08:10:35;;;;;;;12.40;4.50;;;;;;;0.21;100.00;103303.00;4925804;28;20129;-80
2024/01/12 08:13:41;;;;;;;9.30;4.00;;;;;;;0.22;100.00;103302.22;4977496;28;20483;-80
2024/01/12 08:16:38;;;;;;;10.48;4.10;;;;;;;0.08;100.00;103278.31;4977699;28;20039;-80
2024/01/12 08:19:10;;;;;;;7.90;3.70;;;;;;;0.15;100.00;103293.25;5164237;23;20467;-80
2024/01/12 08:22:17;;;;;;;9.23;3.80;;;;;;;0.08;100.00;103283.44;4957162;29;20070;-80
2024/01/12 08:24:57;;;;;;;8.52;3.97;;;;;;;0.13;100.00;103291.41;4932269;29;20047;-81
2024/01/12 08:27:28;;;;;;;8.77;3.70;;;;;;;0.25;100.00;103306.66;4958157;29;20030;-81
2024/01/12 08:30:12;;;;;;;9.98;4.07;;;;;;;0.13;100.00;103288.84;4957680;29;20031;-80
2024/01/12 08:32:40;;;;;;;8.45;3.60;;;;;;;0.19;100.00;103299.47;5022720;23;20047;-79
2024/01/12 08:35:12;;;;;;;8.98;3.65;;;;;;;0.19;100.00;103294.34;4977125;28;20023;-79
2024/01/12 08:37:48;;;;;;;8.82;3.50;;;;;;;0.20;100.00;103302.91;4976862;28;20394;-79
2024/01/12 08:40:14;;;;;;;7.15;3.20;;;;;;;0.28;100.00;103317.06;5008920;23;20146;-79
2024/01/12 08:42:39;;;;;;;7.28;3.22;;;;;;;0.28;100.00;103319.63;4937790;29;20040;-79
2024/01/12 08:45:05;;;;;;;5.10;2.70;;;;;;;0.27;100.00;103326.41;4937872;29;20392;-80
2024/01/12 08:47:30;;;;;;;6.73;2.93;;;;;;;0.28;100.00;103330.72;4938877;29;20066;-80
2024/01/12 08:49:58;;;;;;;7.28;2.97;;;;;;;0.27;100.00;103316.22;4938797;29;20496;-79
2024/01/12 08:52:23;;;;;;;7.75;3.40;;;;;;;0.28;100.00;103309.41;4937564;29;20031;-84
2024/01/12 08:54:48;;;;;;;8.13;3.55;;;;;;;0.34;100.00;103320.03;4940623;29;20086;-80
2024/01/12 08:57:13;;;;;;;10.10;4.07;;;;;;;0.37;100.00;103315.13;4957482;29;20086;-83
2024/01/12 08:59:39;;;;;;;11.20;3.97;;;;;;;0.41;100.00;103312.00;4956618;28;20409;-82
2024/01/12 09:02:04;;;;;;;8.07;3.88;;;;;;;0.44;100.00;103314.78;4955242;28;20038;-82
2024/01/12 09:04:31;;;;;;;10.60;4.10;;;;;;;0.43;100.00;103312.09;4938539;29;20083;-88
2024/01/12 09:06:56;;;;;;;9.45;4.10;;;;;;;0.51;100.00;103317.72;4937863;29;20023;-86
2024/01/12 09:09:21;;;;;;;9.52;4.20;;;;;;;0.51;100.00;103307.50;4937598;29;20409;-83
2024/01/12 09:11:47;;;;;;;10.60;4.30;;;;;;;0.49;100.00;103307.41;4938088;29;20046;-84
2024/01/12 09:14:18;;;;;;;9.60;3.85;;;;;;;0.58;100.00;103315.69;4937541;29;20024;-83
2024/01/12 09:16:45;;;;;;;7.80;3.72;;;;;;;0.53;100.00;103303.38;4937797;29;20059;-83
2024/01/12 09:19:10;;;;;;;10.43;4.07;;;;;;;0.58;100.00;103305.44;4937918;29;20469;-82
2024/01/12 09:21:36;;;;;;;9.35;3.80;;;;;;;0.65;100.00;103318.63;4937097;29;20028;-84
2024/01/12 09:24:01;;;;;;;11.23;4.47;;;;;;;0.72;100.00;103325.94;4938034;29;20396;-84
2024/01/12 09:26:35;;;;;;;10.52;3.83;;;;;;;0.72;100.00;103314.03;4937726;29;20073;-83
2024/01/12 09:33:07;;;;;;;10.05;3.97;;;;;;;0.83;100.00;103309.63;4940915;29;20050;-81
2024/01/12 10:06:40;;;;;;;5.45;3.00;;;;;;;1.14;100.00;103305.56;4956284;28;20106;-83
2024/01/12 10:13:16;;;;;;;4.68;2.60;;;;;;;1.21;100.00;103300.94;4953977;28;20098;-84
2024/01/12 10:16:27;;;;;;;4.80;2.50;;;;;;;1.25;100.00;103304.56;4953476;29;20050;-83
2024/01/12 10:18:53;;;;;;;5.28;2.60;;;;;;;1.10;100.00;103272.91;4954542;28;20094;-83
2024/01/12 12:14:04;;;;;;;3.67;2.65;;;;;;;2.08;100.00;103256.63;4895106;29;20131;-83
2024/01/12 12:38:00;;;;;;;6.47;3.08;;;;;;;2.16;100.00;103204.16;5020825;23;20053;-83
2024/01/12 12:40:29;;;;;;;5.35;2.75;;;;;;;2.15;100.00;103195.59;4977017;28;20419;-83
2024/01/12 12:45:29;;;;;;;3.72;2.40;;;;;;;2.12;100.00;103180.03;6083345;23;20045;-82
2024/01/12 12:47:57;;;;;;;3.33;2.50;;;;;;;2.19;100.00;103183.84;4975521;28;20039;-83
2024/01/12 12:50:25;;;;;;;6.07;2.70;;;;;;;2.16;100.00;103184.56;4977126;28;20105;-83
2024/01/12 12:52:51;;;;;;;3.70;2.38;;;;;;;2.21;100.00;103191.59;4976131;28;20034;-83
2024/01/12 13:08:29;;;;;;;5.43;2.80;;;;;;;1.99;100.00;103145.16;4900656;29;20073;-84
2024/01/12 13:15:11;;;;;;;5.97;3.08;;;;;;;2.19;100.00;103168.47;4897704;29;20083;-84
2024/01/12 13:17:55;;;;;;;6.03;3.28;;;;;;;2.20;100.00;103165.09;4872982;29;20051;-83
2024/01/12 13:22:56;;;;;;;4.95;2.90;;;;;;;2.18;100.00;103168.38;5543786;22;20059;-83
2024/01/12 13:25:22;;;;;;;3.67;2.70;;;;;;;2.18;100.00;103164.13;4955954;29;20396;-84
2024/01/12 13:30:41;;;;;;;3.50;2.30;;;;;;;2.22;100.00;103163.53;5150819;23;20051;-84
2024/01/12 14:00:25;;;;;;;3.03;2.30;;;;;;;2.19;100.00;103099.28;4972259;23;20055;-84
2024/01/12 14:03:40;;;;;;;3.38;2.22;;;;;;;2.33;100.00;103117.97;4963210;28;20579;-84
2024/01/12 14:24:57;;;;;;;5.60;2.38;;;;;;;2.34;100.00;103116.31;5573899;23;20074;-85
2024/01/12 14:40:25;;;;;;;3.38;2.30;;;;;;;2.31;100.00;103110.22;4952836;23;20039;-85
2024/01/12 14:46:12;;;;;;;4.57;2.42;;;;;;;2.31;100.00;103106.75;5179670;22;20040;-84
2024/01/12 15:14:49;;;;;;;5.53;2.80;;;;;;;2.29;100.00;103116.06;5710909;23;20062;-85
2024/01/12 15:21:14;;;;;;;5.88;3.00;;;;;;;2.24;100.00;103112.34;4860424;29;20029;-85
2024/01/12 15:39:51;;;;;;;12.07;4.60;;;;;;;2.01;100.00;103099.13;4957372;23;20055;-85
2024/01/12 15:42:26;;;;;;;11.32;4.70;;;;;;;1.99;100.00;103090.47;4953647;29;20038;-85
2024/01/12 15:45:27;;;;;;;10.18;4.10;;;;;;;2.03;100.00;103092.44;4941996;29;20313;-85
2024/01/12 15:48:18;;;;;;;10.20;3.92;;;;;;;2.00;100.00;103093.16;4916550;29;20042;-85
2024/01/12 15:51:02;;;;;;;6.93;3.70;;;;;;;1.99;100.00;103098.16;4950587;29;20027;-84
2024/01/12 15:53:28;;;;;;;8.30;3.75;;;;;;;1.91;100.00;103084.03;4954147;29;20024;-85
2024/01/12 15:58:50;;;;;;;8.65;3.75;;;;;;;2.00;100.00;103090.59;4962932;23;20063;-86
2024/01/12 16:09:52;;;;;;;6.68;3.30;;;;;;;1.95;100.00;103093.69;5033064;23;20308;-85
2024/01/12 16:15:17;;;;;;;6.95;3.10;;;;;;;1.92;100.00;103085.81;4918394;29;20043;-87
2024/01/12 16:20:54;;;;;;;6.68;3.35;;;;;;;1.87;100.00;103077.88;4939580;29;20067;-86
2024/01/12 16:24:15;;;;;;;7.05;3.60;;;;;;;1.95;100.00;103093.69;4948469;23;20054;-85
2024/01/12 16:30:22;;;;;;;7.55;3.50;;;;;;;1.84;100.00;103073.47;4953503;29;20062;-87
2024/01/12 16:33:43;;;;;;;7.47;3.40;;;;;;;1.93;100.00;103091.00;4958324;29;20134;-87
2024/01/12 16:36:23;;;;;;;5.50;3.22;;;;;;;1.78;100.00;103069.69;4894816;29;20036;-84
2024/01/12 16:42:10;;;;;;;5.82;3.22;;;;;;;1.81;100.00;103078.41;4913143;29;20168;-85
2024/01/12 16:55:03;;;;;;;6.07;2.90;;;;;;;1.58;100.00;103053.16;4843136;29;20079;-87
2024/01/12 17:00:58;;;;;;;5.97;2.90;;;;;;;1.57;100.00;103057.41;4842254;29;20076;-87
2024/01/12 17:04:14;;;;;;;5.70;3.22;;;;;;;1.79;100.00;103095.34;4842036;29;20114;-87
2024/01/12 17:06:47;;;;;;;4.75;2.90;;;;;;;1.61;100.00;103066.16;4841897;29;20046;-87
2024/01/12 17:16:14;;;;;;;5.35;3.03;;;;;;;1.81;100.00;103077.50;4769512;30;20483;-85
2024/01/12 17:18:54;;;;;;;6.38;3.50;;;;;;;1.75;100.00;103066.94;4769303;30;20035;-87
2024/01/12 17:33:02;;;;;;;6.10;3.13;;;;;;;1.83;100.00;103075.94;4824183;29;20054;-87
2024/01/12 17:35:31;;;;;;;6.35;2.90;;;;;;;1.57;100.00;103036.03;4837185;29;20045;-87
2024/01/12 17:41:55;;;;;;;6.75;2.95;;;;;;;1.81;100.00;103073.28;4841514;29;20097;-87
2024/01/12 17:44:21;;;;;;;6.22;3.20;;;;;;;1.66;100.00;103052.81;4843105;29;20139;-87
2024/01/12 17:47:21;;;;;;;7.47;3.00;;;;;;;1.79;100.00;103069.75;4856950;29;20037;-87
2024/01/12 17:52:57;;;;;;;6.65;3.22;;;;;;;1.59;100.00;103032.75;4841798;29;20083;-86
2024/01/12 17:56:33;;;;;;;;;;;;;;;;;;;;;
2024/01/12 17:59:18;;;;;;;6.75;3.08;;;;;;;1.79;100.00;103074.88;4805301;29;20042;-88
2024/01/12 18:02:20;;;;;;;5.35;3.03;;;;;;;1.80;100.00;103080.91;4804720;29;20045;-84
2024/01/12 18:04:56;;;;;;;;;;;;;;;;;;;;;
2024/01/12 18:07:35;;;;;;;;;;;;;;;;;;;;;
2024/01/12 18:10:31;;;;;;;6.05;2.90;;;;;;;1.77;100.00;103068.78;4765905;30;20087;-85